sensor_id;sensor_type;location;lat;lon;timestamp;pressure;altitude;pressure_sealevel;temperature;humidity
5138;BME280;53959;53.626;11.410;2023-04-07T00:00:49;101399.81;;;4.95;52.67
5138;BME280;53959;53.626;11.410;2023-04-07T00:03:15;101403.31;;;4.94;53.02
5138;BME280;53959;53.626;11.410;2023-04-07T00:05:40;101394.50;;;4.92;53.10
5138;BME280;53959;53.626;11.410;2023-04-07T00:08:06;101399.72;;;4.86;53.21
5138;BME280;53959;53.626;11.410;2023-04-07T00:10:31;101397.03;;;4.80;52.96
5138;BME280;53959;53.626;11.410;2023-04-07T00:12:57;101397.09;;;4.86;53.01
5138;BME280;53959;53.626;11.410;2023-04-07T00:15:22;101390.03;;;4.83;53.23
5138;BME280;53959;53.626;11.410;2023-04-07T00:17:47;101400.56;;;4.82;53.33
5138;BME280;53959;53.626;11.410;2023-04-07T00:20:13;101392.59;;;4.77;53.39
5138;BME280;53959;53.626;11.410;2023-04-07T00:22:39;101397.91;;;4.79;53.62
5138;BME280;53959;53.626;11.410;2023-04-07T00:25:04;101396.19;;;4.84;53.10
5138;BME280;53959;53.626;11.410;2023-04-07T00:27:30;101398.72;;;4.73;53.06
5138;BME280;53959;53.626;11.410;2023-04-07T00:29:56;101399.63;;;4.77;53.60
5138;BME280;53959;53.626;11.410;2023-04-07T00:32:21;101402.25;;;4.77;54.28
5138;BME280;53959;53.626;11.410;2023-04-07T00:34:47;101395.13;;;4.63;55.33
5138;BME280;53959;53.626;11.410;2023-04-07T00:37:12;101404.84;;;4.71;55.20
5138;BME280;53959;53.626;11.410;2023-04-07T00:39:37;101398.63;;;4.66;56.31
5138;BME280;53959;53.626;11.410;2023-04-07T00:42:03;101396.91;;;4.68;56.08
5138;BME280;53959;53.626;11.410;2023-04-07T00:44:31;101400.44;;;4.68;55.76
5138;BME280;53959;53.626;11.410;2023-04-07T00:46:56;101390.69;;;4.59;55.33
5138;BME280;53959;53.626;11.410;2023-04-07T00:49:22;101395.97;;;4.59;55.67
5138;BME280;53959;53.626;11.410;2023-04-07T00:51:47;101392.38;;;4.53;55.90
5138;BME280;53959;53.626;11.410;2023-04-07T00:54:13;101397.59;;;4.51;56.36
5138;BME280;53959;53.626;11.410;2023-04-07T00:56:39;101395.88;;;4.53;56.35
5138;BME280;53959;53.626;11.410;2023-04-07T00:59:04;101394.13;;;4.52;56.61
5138;BME280;53959;53.626;11.410;2023-04-07T01:01:34;101386.19;;;4.51;57.11
5138;BME280;53959;53.626;11.410;2023-04-07T01:04:19;101383.53;;;4.46;56.12
5138;BME280;53959;53.626;11.410;2023-04-07T01:06:49;101388.91;;;4.55;55.36
5138;BME280;53959;53.626;11.410;2023-04-07T01:09:26;101390.59;;;4.50;56.00
5138;BME280;53959;53.626;11.410;2023-04-07T01:12:26;101387.91;;;4.46;55.92
5138;BME280;53959;53.626;11.410;2023-04-07T01:14:59;101387.88;;;4.41;55.80
5138;BME280;53959;53.626;11.410;2023-04-07T01:17:38;101385.19;;;4.38;55.67
5138;BME280;53959;53.626;11.410;2023-04-07T01:20:08;101383.28;;;4.22;55.92
5138;BME280;53959;53.626;11.410;2023-04-07T01:22:41;101391.81;;;4.05;57.87
5138;BME280;53959;53.626;11.410;2023-04-07T01:30:57;101387.28;;;3.92;57.88
5138;BME280;53959;53.626;11.410;2023-04-07T01:33:24;101389.09;;;3.96;58.17
5138;BME280;53959;53.626;11.410;2023-04-07T01:35:53;101385.53;;;3.93;58.12
5138;BME280;53959;53.626;11.410;2023-04-07T01:38:20;101386.47;;;3.96;58.24
5138;BME280;53959;53.626;11.410;2023-04-07T01:40:46;101387.19;;;3.86;58.13
5138;BME280;53959;53.626;11.410;2023-04-07T01:43:12;101387.19;;;3.86;58.59
5138;BME280;53959;53.626;11.410;2023-04-07T01:45:38;101387.81;;;3.68;58.81
5138;BME280;53959;53.626;11.410;2023-04-07T01:48:05;101390.34;;;3.60;59.51
5138;BME280;53959;53.626;11.410;2023-04-07T01:50:32;101386.09;;;3.70;58.71
5138;BME280;53959;53.626;11.410;2023-04-07T01:52:58;101387.75;;;3.63;58.89
5138;BME280;53959;53.626;11.410;2023-04-07T01:55:24;101391.25;;;3.62;59.42
5138;BME280;53959;53.626;11.410;2023-04-07T01:58:03;101390.44;;;3.67;59.46
5138;BME280;53959;53.626;11.410;2023-04-07T02:00:29;101393.00;;;3.63;59.72
5138;BME280;53959;53.626;11.410;2023-04-07T02:02:58;101397.28;;;3.55;59.19
5138;BME280;53959;53.626;11.410;2023-04-07T02:05:29;101385.84;;;3.50;59.54
5138;BME280;53959;53.626;11.410;2023-04-07T02:08:02;101390.16;;;3.48;58.97
5138;BME280;53959;53.626;11.410;2023-04-07T02:10:32;101398.09;;;3.51;59.46
5138;BME280;53959;53.626;11.410;2023-04-07T02:13:00;101394.59;;;3.52;59.69
5138;BME280;53959;53.626;11.410;2023-04-07T02:15:29;101389.28;;;3.46;60.47
5138;BME280;53959;53.626;11.410;2023-04-07T02:17:57;101389.13;;;3.35;59.88
5138;BME280;53959;53.626;11.410;2023-04-07T02:20:23;101384.03;;;3.49;60.80
5138;BME280;53959;53.626;11.410;2023-04-07T02:22:49;101393.50;;;3.38;61.30
5138;BME280;53959;53.626;11.410;2023-04-07T02:27:48;101382.16;;;3.39;61.05
5138;BME280;53959;53.626;11.410;2023-04-07T02:30:13;101383.16;;;3.47;60.69
5138;BME280;53959;53.626;11.410;2023-04-07T02:32:39;101383.81;;;3.34;61.58
5138;BME280;53959;53.626;11.410;2023-04-07T02:35:05;101387.19;;;3.25;62.70
5138;BME280;53959;53.626;11.410;2023-04-07T02:37:33;101388.03;;;3.23;62.99
5138;BME280;53959;53.626;11.410;2023-04-07T02:39:59;101385.31;;;3.16;62.78
5138;BME280;53959;53.626;11.410;2023-04-07T02:42:25;101388.66;;;3.08;63.69
5138;BME280;53959;53.626;11.410;2023-04-07T02:44:50;101398.28;;;3.07;64.01
5138;BME280;53959;53.626;11.410;2023-04-07T02:47:16;101391.41;;;3.14;63.87
5138;BME280;53959;53.626;11.410;2023-04-07T02:49:41;101390.31;;;3.01;63.81
5138;BME280;53959;53.626;11.410;2023-04-07T02:52:07;101397.34;;;3.02;64.53
5138;BME280;53959;53.626;11.410;2023-04-07T02:54:32;101399.94;;;3.02;64.45
5138;BME280;53959;53.626;11.410;2023-04-07T02:56:58;101400.75;;;2.98;64.70
5138;BME280;53959;53.626;11.410;2023-04-07T02:59:24;101396.28;;;2.92;65.06
5138;BME280;53959;53.626;11.410;2023-04-07T03:01:49;101394.41;;;2.85;64.55
5138;BME280;53959;53.626;11.410;2023-04-07T03:04:15;101391.88;;;2.90;64.41
5138;BME280;53959;53.626;11.410;2023-04-07T03:06:41;101387.44;;;2.86;64.19
5138;BME280;53959;53.626;11.410;2023-04-07T03:09:11;101393.38;;;2.76;64.29
5138;BME280;53959;53.626;11.410;2023-04-07T03:11:38;101390.75;;;2.76;64.95
5138;BME280;53959;53.626;11.410;2023-04-07T03:14:03;101393.31;;;2.71;64.69
5138;BME280;53959;53.626;11.410;2023-04-07T03:16:30;101390.69;;;2.71;64.99
5138;BME280;53959;53.626;11.410;2023-04-07T03:19:10;101395.06;;;2.74;65.02
5138;BME280;53959;53.626;11.410;2023-04-07T03:21:41;101400.38;;;2.77;64.62
5138;BME280;53959;53.626;11.410;2023-04-07T03:24:07;101388.00;;;2.70;64.45
5138;BME280;53959;53.626;11.410;2023-04-07T03:26:33;101387.94;;;2.66;64.71
5138;BME280;53959;53.626;11.410;2023-04-07T03:28:59;101395.78;;;2.63;64.32
5138;BME280;53959;53.626;11.410;2023-04-07T03:31:26;101396.69;;;2.65;64.68
5138;BME280;53959;53.626;11.410;2023-04-07T03:33:52;101393.84;;;2.55;64.65
5138;BME280;53959;53.626;11.410;2023-04-07T03:36:19;101392.97;;;2.54;64.90
5138;BME280;53959;53.626;11.410;2023-04-07T03:38:48;101400.84;;;2.54;64.49
5138;BME280;53959;53.626;11.410;2023-04-07T03:41:16;101405.22;;;2.55;65.06
5138;BME280;53959;53.626;11.410;2023-04-07T03:43:41;101399.94;;;2.52;64.33
5138;BME280;53959;53.626;11.410;2023-04-07T03:46:06;101403.38;;;2.50;63.86
5138;BME280;53959;53.626;11.410;2023-04-07T03:48:32;101402.44;;;2.46;63.78
5138;BME280;53959;53.626;11.410;2023-04-07T03:51:08;101398.09;;;2.48;64.25
5138;BME280;53959;53.626;11.410;2023-04-07T03:53:34;101393.66;;;2.44;64.66
5138;BME280;53959;53.626;11.410;2023-04-07T03:56:08;101396.28;;;2.44;64.72
5138;BME280;53959;53.626;11.410;2023-04-07T03:58:41;101399.69;;;2.38;64.81
5138;BME280;53959;53.626;11.410;2023-04-07T04:01:12;101405.63;;;2.30;64.76
5138;BME280;53959;53.626;11.410;2023-04-07T04:03:40;101402.09;;;2.29;65.19
5138;BME280;53959;53.626;11.410;2023-04-07T04:06:18;101402.09;;;2.29;65.39
5138;BME280;53959;53.626;11.410;2023-04-07T04:08:43;101414.31;;;2.27;65.86
5138;BME280;53959;53.626;11.410;2023-04-07T04:11:09;101403.00;;;2.30;65.61
5138;BME280;53959;53.626;11.410;2023-04-07T04:13:42;101403.00;;;2.30;65.26
5138;BME280;53959;53.626;11.410;2023-04-07T04:16:07;101403.84;;;2.29;64.94
5138;BME280;53959;53.626;11.410;2023-04-07T04:18:35;101403.75;;;2.24;64.92
5138;BME280;53959;53.626;11.410;2023-04-07T04:21:01;101404.47;;;2.15;65.10
5138;BME280;53959;53.626;11.410;2023-04-07T04:23:27;101413.19;;;2.14;64.97
5138;BME280;53959;53.626;11.410;2023-04-07T04:25:54;101420.06;;;2.09;65.67
5138;BME280;53959;53.626;11.410;2023-04-07T04:28:19;101413.13;;;2.11;65.82
5138;BME280;53959;53.626;11.410;2023-04-07T04:30:45;101418.28;;;2.08;65.63
5138;BME280;53959;53.626;11.410;2023-04-07T04:33:10;101412.84;;;1.99;65.63
5138;BME280;53959;53.626;11.410;2023-04-07T04:35:56;101412.81;;;1.96;65.40
5138;BME280;53959;53.626;11.410;2023-04-07T04:38:23;101420.75;;;2.01;65.77
5138;BME280;53959;53.626;11.410;2023-04-07T04:40:53;101422.25;;;1.89;66.13
5138;BME280;53959;53.626;11.410;2023-04-07T04:43:24;101427.44;;;1.86;66.12
5138;BME280;53959;53.626;11.410;2023-04-07T04:45:49;101423.13;;;1.90;65.66
5138;BME280;53959;53.626;11.410;2023-04-07T04:48:16;101417.97;;;1.93;65.54
5138;BME280;53959;53.626;11.410;2023-04-07T04:50:42;101427.50;;;1.89;65.21
5138;BME280;53959;53.626;11.410;2023-04-07T04:53:10;101429.16;;;1.86;65.39
5138;BME280;53959;53.626;11.410;2023-04-07T04:55:43;101429.16;;;1.84;65.47
5138;BME280;53959;53.626;11.410;2023-04-07T04:58:16;101426.31;;;1.77;65.32
5138;BME280;53959;53.626;11.410;2023-04-07T05:00:46;101434.25;;;1.80;65.60
5138;BME280;53959;53.626;11.410;2023-04-07T05:03:11;101436.88;;;1.80;65.79
5138;BME280;53959;53.626;11.410;2023-04-07T05:05:40;101452.59;;;1.80;66.28
5138;BME280;53959;53.626;11.410;2023-04-07T05:08:09;101444.81;;;1.83;66.85
5138;BME280;53959;53.626;11.410;2023-04-07T05:10:39;101448.22;;;1.80;66.83
5138;BME280;53959;53.626;11.410;2023-04-07T05:13:08;101443.91;;;1.81;66.77
5138;BME280;53959;53.626;11.410;2023-04-07T05:15:34;101451.16;;;1.92;66.71
5138;BME280;53959;53.626;11.410;2023-04-07T05:18:01;101451.97;;;1.90;66.41
5138;BME280;53959;53.626;11.410;2023-04-07T05:20:27;101450.09;;;1.84;67.04
5138;BME280;53959;53.626;11.410;2023-04-07T05:22:53;101452.75;;;1.87;67.09
5138;BME280;53959;53.626;11.410;2023-04-07T05:25:22;101458.69;;;1.79;66.41
5138;BME280;53959;53.626;11.410;2023-04-07T05:27:51;101460.56;;;1.84;66.45
5138;BME280;53959;53.626;11.410;2023-04-07T05:30:16;101456.00;;;1.76;66.04
5138;BME280;53959;53.626;11.410;2023-04-07T05:32:42;101470.84;;;1.77;66.33
5138;BME280;53959;53.626;11.410;2023-04-07T05:35:17;101463.94;;;1.80;66.62
5138;BME280;53959;53.626;11.410;2023-04-07T05:37:49;101461.47;;;1.86;66.66
5138;BME280;53959;53.626;11.410;2023-04-07T05:40:15;101459.75;;;1.87;66.38
5138;BME280;53959;53.626;11.410;2023-04-07T05:42:41;101470.31;;;1.91;66.80
5138;BME280;53959;53.626;11.410;2023-04-07T05:45:07;101468.47;;;1.86;66.57
5138;BME280;53959;53.626;11.410;2023-04-07T05:47:36;101469.41;;;1.89;66.72
5138;BME280;53959;53.626;11.410;2023-04-07T05:50:02;101471.97;;;1.86;66.68
5138;BME280;53959;53.626;11.410;2023-04-07T05:52:29;101472.22;;;1.97;66.30
5138;BME280;53959;53.626;11.410;2023-04-07T05:55:05;101473.84;;;1.92;66.51
5138;BME280;53959;53.626;11.410;2023-04-07T05:57:31;101479.13;;;1.95;67.05
5138;BME280;53959;53.626;11.410;2023-04-07T05:59:59;101487.84;;;1.92;66.96
5138;BME280;53959;53.626;11.410;2023-04-07T06:02:24;101487.00;;;1.95;67.03
5138;BME280;53959;53.626;11.410;2023-04-07T06:04:50;101481.88;;;2.00;67.48
5138;BME280;53959;53.626;11.410;2023-04-07T06:07:18;101479.13;;;1.95;67.81
5138;BME280;53959;53.626;11.410;2023-04-07T06:09:43;101481.91;;;2.01;67.80
5138;BME280;53959;53.626;11.410;2023-04-07T06:12:08;101481.13;;;2.05;67.27
5138;BME280;53959;53.626;11.410;2023-04-07T06:14:36;101484.94;;;2.21;66.95
5138;BME280;53959;53.626;11.410;2023-04-07T06:17:01;101493.97;;;2.34;67.16
5138;BME280;53959;53.626;11.410;2023-04-07T06:19:27;101487.00;;;2.36;66.74
5138;BME280;53959;53.626;11.410;2023-04-07T06:21:52;101486.81;;;2.27;66.62
5138;BME280;53959;53.626;11.410;2023-04-07T06:24:18;101494.94;;;2.39;66.77
5138;BME280;53959;53.626;11.410;2023-04-07T06:26:47;101494.25;;;2.48;66.72
5138;BME280;53959;53.626;11.410;2023-04-07T06:29:12;101495.25;;;2.54;66.22
5138;BME280;53959;53.626;11.410;2023-04-07T06:31:38;101491.84;;;2.58;65.97
5138;BME280;53959;53.626;11.410;2023-04-07T06:34:03;101492.84;;;2.65;66.17
5138;BME280;53959;53.626;11.410;2023-04-07T06:36:28;101503.28;;;2.62;65.56
5138;BME280;53959;53.626;11.410;2023-04-07T06:38:54;101503.44;;;2.70;65.12
5138;BME280;53959;53.626;11.410;2023-04-07T06:41:19;101507.22;;;2.84;65.10
5138;BME280;53959;53.626;11.410;2023-04-07T06:43:47;101501.19;;;2.89;64.97
5138;BME280;53959;53.626;11.410;2023-04-07T06:46:13;101497.75;;;2.92;65.76
5138;BME280;53959;53.626;11.410;2023-04-07T06:48:38;101500.50;;;2.98;65.38
5138;BME280;53959;53.626;11.410;2023-04-07T06:51:04;101503.31;;;3.10;65.00
5138;BME280;53959;53.626;11.410;2023-04-07T06:53:30;101502.41;;;3.08;65.17
5138;BME280;53959;53.626;11.410;2023-04-07T06:56:22;101502.66;;;3.21;64.29
5138;BME280;53959;53.626;11.410;2023-04-07T06:58:47;101501.97;;;3.32;64.20
5138;BME280;53959;53.626;11.410;2023-04-07T07:01:13;101509.31;;;3.53;63.92
5138;BME280;53959;53.626;11.410;2023-04-07T07:03:38;101514.44;;;3.46;64.89
5138;BME280;53959;53.626;11.410;2023-04-07T07:06:03;101514.03;;;3.76;64.22
5138;BME280;53959;53.626;11.410;2023-04-07T07:08:29;101523.34;;;3.54;64.19
5138;BME280;53959;53.626;11.410;2023-04-07T07:10:55;101519.88;;;3.56;63.92
5138;BME280;53959;53.626;11.410;2023-04-07T07:13:23;101516.44;;;3.60;64.40
5138;BME280;53959;53.626;11.410;2023-04-07T07:15:49;101521.00;;;3.72;64.39
5138;BME280;53959;53.626;11.410;2023-04-07T07:18:16;101524.44;;;3.68;64.06
5138;BME280;53959;53.626;11.410;2023-04-07T07:20:41;101523.50;;;3.64;64.04
5138;BME280;53959;53.626;11.410;2023-04-07T07:23:07;101522.44;;;3.53;63.82
5138;BME280;53959;53.626;11.410;2023-04-07T07:25:32;101519.94;;;3.61;63.63
5138;BME280;53959;53.626;11.410;2023-04-07T07:27:57;101522.66;;;3.65;63.05
5138;BME280;53959;53.626;11.410;2023-04-07T07:30:23;101540.50;;;3.85;62.88
5138;BME280;53959;53.626;11.410;2023-04-07T07:32:49;101533.50;;;3.87;62.04
5138;BME280;53959;53.626;11.410;2023-04-07T07:35:15;101535.19;;;3.82;62.39
5138;BME280;53959;53.626;11.410;2023-04-07T07:37:41;101530.84;;;3.84;62.31
5138;BME280;53959;53.626;11.410;2023-04-07T07:40:09;101532.25;;;4.20;61.42
5138;BME280;53959;53.626;11.410;2023-04-07T07:42:35;101546.25;;;4.19;61.41
5138;BME280;53959;53.626;11.410;2023-04-07T07:45:00;101543.69;;;4.25;61.19
5138;BME280;53959;53.626;11.410;2023-04-07T07:47:26;101541.38;;;4.46;60.82
5138;BME280;53959;53.626;11.410;2023-04-07T07:49:51;101547.78;;;4.67;60.24
5138;BME280;53959;53.626;11.410;2023-04-07T07:52:17;101544.19;;;4.61;60.07
5138;BME280;53959;53.626;11.410;2023-04-07T07:54:42;101546.81;;;4.61;59.48
5138;BME280;53959;53.626;11.410;2023-04-07T07:57:08;101543.63;;;4.87;58.58
5138;BME280;53959;53.626;11.410;2023-04-07T07:59:33;101547.50;;;5.20;58.74
5138;BME280;53959;53.626;11.410;2023-04-07T08:01:59;101545.94;;;5.40;57.20
5138;BME280;53959;53.626;11.410;2023-04-07T08:04:24;101546.19;;;5.65;55.64
5138;BME280;53959;53.626;11.410;2023-04-07T08:06:51;101546.19;;;5.68;54.90
5138;BME280;53959;53.626;11.410;2023-04-07T08:09:17;101541.06;;;5.86;55.41
5138;BME280;53959;53.626;11.410;2023-04-07T08:11:44;101549.38;;;6.41;54.56
5138;BME280;53959;53.626;11.410;2023-04-07T08:14:09;101546.88;;;6.72;53.23
5138;BME280;53959;53.626;11.410;2023-04-07T08:16:35;101544.28;;;6.86;52.82
5138;BME280;53959;53.626;11.410;2023-04-07T08:19:00;101544.22;;;6.66;53.59
5138;BME280;53959;53.626;11.410;2023-04-07T08:21:25;101546.13;;;7.10;52.63
5138;BME280;53959;53.626;11.410;2023-04-07T08:23:54;101547.03;;;7.19;52.64
5138;BME280;53959;53.626;11.410;2023-04-07T08:26:20;101552.19;;;6.73;53.29
5138;BME280;53959;53.626;11.410;2023-04-07T08:28:47;101554.69;;;6.50;53.74
5138;BME280;53959;53.626;11.410;2023-04-07T08:31:13;101555.66;;;6.63;52.94
5138;BME280;53959;53.626;11.410;2023-04-07T08:33:38;101556.44;;;6.50;53.44
5138;BME280;53959;53.626;11.410;2023-04-07T08:36:04;101551.34;;;6.91;52.71
5138;BME280;53959;53.626;11.410;2023-04-07T08:38:29;101560.19;;;6.98;52.39
5138;BME280;53959;53.626;11.410;2023-04-07T08:41:37;101559.41;;;7.51;50.91
5138;BME280;53959;53.626;11.410;2023-04-07T08:44:03;101556.59;;;6.77;52.54
5138;BME280;53959;53.626;11.410;2023-04-07T08:46:29;101557.50;;;6.90;52.39
5138;BME280;53959;53.626;11.410;2023-04-07T08:48:56;101560.28;;;7.54;51.18
5138;BME280;53959;53.626;11.410;2023-04-07T08:51:31;101560.25;;;7.24;51.36
5138;BME280;53959;53.626;11.410;2023-04-07T08:54:04;101557.63;;;7.51;51.69
5138;BME280;53959;53.626;11.410;2023-04-07T08:56:31;101558.53;;;8.02;50.35
5138;BME280;53959;53.626;11.410;2023-04-07T08:58:57;101548.72;;;8.60;48.96
5138;BME280;53959;53.626;11.410;2023-04-07T09:01:23;101557.66;;;7.94;51.08
5138;BME280;53959;53.626;11.410;2023-04-07T09:03:49;101554.13;;;7.63;51.33
5138;BME280;53959;53.626;11.410;2023-04-07T09:06:15;101555.81;;;7.04;52.94
5138;BME280;53959;53.626;11.410;2023-04-07T09:08:41;101551.28;;;6.73;53.46
5138;BME280;53959;53.626;11.410;2023-04-07T09:11:06;101551.28;;;6.80;53.99
5138;BME280;53959;53.626;11.410;2023-04-07T09:13:31;101550.50;;;7.03;54.28
5138;BME280;53959;53.626;11.410;2023-04-07T09:16:00;101552.16;;;6.72;54.28
5138;BME280;53959;53.626;11.410;2023-04-07T09:18:27;101559.22;;;6.84;54.07
5138;BME280;53959;53.626;11.410;2023-04-07T09:20:57;101558.25;;;6.62;54.82
5138;BME280;53959;53.626;11.410;2023-04-07T09:23:34;101560.16;;;6.99;54.15
5138;BME280;53959;53.626;11.410;2023-04-07T09:26:16;101546.88;;;6.76;54.00
5138;BME280;53959;53.626;11.410;2023-04-07T09:28:44;101547.69;;;6.57;54.52
5138;BME280;53959;53.626;11.410;2023-04-07T09:31:10;101543.44;;;6.94;54.17
5138;BME280;53959;53.626;11.410;2023-04-07T09:33:35;101547.84;;;6.92;53.22
5138;BME280;53959;53.626;11.410;2023-04-07T09:36:02;101541.69;;;6.96;52.18
5138;BME280;53959;53.626;11.410;2023-04-07T09:38:33;101549.63;;;7.02;52.18
5138;BME280;53959;53.626;11.410;2023-04-07T09:41:12;101547.91;;;7.17;52.67
5138;BME280;53959;53.626;11.410;2023-04-07T09:43:40;101547.00;;;7.04;52.66
5138;BME280;53959;53.626;11.410;2023-04-07T09:48:35;101547.91;;;7.24;52.35
5138;BME280;53959;53.626;11.410;2023-04-07T09:51:08;101553.16;;;7.11;53.19
5138;BME280;53959;53.626;11.410;2023-04-07T09:56:08;101551.41;;;7.10;54.04
5138;BME280;53959;53.626;11.410;2023-04-07T09:58:37;101552.34;;;7.44;53.56
5138;BME280;53959;53.626;11.410;2023-04-07T10:01:05;101552.28;;;7.09;53.63
5138;BME280;53959;53.626;11.410;2023-04-07T10:03:32;101546.16;;;7.25;53.07
5138;BME280;53959;53.626;11.410;2023-04-07T10:05:59;101547.91;;;7.29;53.18
5138;BME280;53959;53.626;11.410;2023-04-07T10:08:25;101540.88;;;7.23;52.95
5138;BME280;53959;53.626;11.410;2023-04-07T10:10:51;101542.63;;;7.27;53.10
5138;BME280;53959;53.626;11.410;2023-04-07T10:13:18;101540.00;;;7.26;53.16
5138;BME280;53959;53.626;11.410;2023-04-07T10:15:44;101541.78;;;7.44;52.90
5138;BME280;53959;53.626;11.410;2023-04-07T10:18:11;101543.56;;;8.01;51.56
5138;BME280;53959;53.626;11.410;2023-04-07T10:20:40;101548.84;;;7.89;50.43
5138;BME280;53959;53.626;11.410;2023-04-07T10:23:19;101542.66;;;7.99;51.59
5138;BME280;53959;53.626;11.410;2023-04-07T10:25:48;101539.16;;;7.88;52.66
5138;BME280;53959;53.626;11.410;2023-04-07T10:28:17;101540.03;;;7.63;52.46
5138;BME280;53959;53.626;11.410;2023-04-07T10:30:46;101542.63;;;7.37;51.35
5138;BME280;53959;53.626;11.410;2023-04-07T10:33:12;101545.28;;;7.32;52.27
5138;BME280;53959;53.626;11.410;2023-04-07T10:36:05;101547.03;;;7.36;53.31
5138;BME280;53959;53.626;11.410;2023-04-07T10:38:31;101549.72;;;7.65;53.22
5138;BME280;53959;53.626;11.410;2023-04-07T10:40:57;101547.06;;;7.67;53.64
5138;BME280;53959;53.626;11.410;2023-04-07T10:43:42;101538.25;;;7.59;54.58
5138;BME280;53959;53.626;11.410;2023-04-07T10:46:09;101543.56;;;7.54;54.03
5138;BME280;53959;53.626;11.410;2023-04-07T10:48:34;101539.16;;;7.84;53.78
5138;BME280;53959;53.626;11.410;2023-04-07T10:53:29;101540.94;;;7.68;54.21
5138;BME280;53959;53.626;11.410;2023-04-07T10:55:56;101537.38;;;7.81;52.73
5138;BME280;53959;53.626;11.410;2023-04-07T10:58:22;101532.09;;;7.83;53.33
5138;BME280;53959;53.626;11.410;2023-04-07T11:03:36;101531.22;;;7.68;54.36
5138;BME280;53959;53.626;11.410;2023-04-07T11:06:12;101540.03;;;7.83;53.75
5138;BME280;53959;53.626;11.410;2023-04-07T11:08:40;101532.09;;;7.79;53.74
5138;BME280;53959;53.626;11.410;2023-04-07T11:11:07;101539.16;;;7.97;53.44
5138;BME280;53959;53.626;11.410;2023-04-07T11:13:43;101536.50;;;7.84;53.38
5138;BME280;53959;53.626;11.410;2023-04-07T11:16:09;101533.88;;;7.84;53.47
5138;BME280;53959;53.626;11.410;2023-04-07T11:18:35;101533.88;;;7.65;53.70
5138;BME280;53959;53.626;11.410;2023-04-07T11:21:02;101540.03;;;7.79;53.59
5138;BME280;53959;53.626;11.410;2023-04-07T11:23:27;101546.22;;;7.68;54.17
5138;BME280;53959;53.626;11.410;2023-04-07T11:26:00;101546.13;;;7.22;55.08
5138;BME280;53959;53.626;11.410;2023-04-07T11:28:27;101551.44;;;7.33;55.48
5138;BME280;53959;53.626;11.410;2023-04-07T11:30:53;101551.41;;;7.08;56.41
5138;BME280;53959;53.626;11.410;2023-04-07T11:33:21;101545.25;;;7.08;56.45
5138;BME280;53959;53.626;11.410;2023-04-07T11:35:51;101545.16;;;6.88;56.13
5138;BME280;53959;53.626;11.410;2023-04-07T11:38:18;101544.28;;;6.92;55.49
5138;BME280;53959;53.626;11.410;2023-04-07T11:40:44;101555.81;;;7.14;55.35
5138;BME280;53959;53.626;11.410;2023-04-07T11:43:38;101550.50;;;7.01;55.84
5138;BME280;53959;53.626;11.410;2023-04-07T11:46:13;101554.03;;;7.00;56.79
5138;BME280;53959;53.626;11.410;2023-04-07T11:48:40;101551.41;;;7.08;55.98
5138;BME280;53959;53.626;11.410;2023-04-07T11:51:14;101552.31;;;7.24;56.14
5138;BME280;53959;53.626;11.410;2023-04-07T11:53:40;101547.88;;;7.09;56.63
5138;BME280;53959;53.626;11.410;2023-04-07T11:56:11;101547.91;;;7.23;56.68
5138;BME280;53959;53.626;11.410;2023-04-07T11:58:53;101547.94;;;7.37;56.63
5138;BME280;53959;53.626;11.410;2023-04-07T12:01:20;101552.34;;;7.30;55.34
5138;BME280;53959;53.626;11.410;2023-04-07T12:03:59;101553.16;;;7.18;56.21
5138;BME280;53959;53.626;11.410;2023-04-07T12:06:35;101554.94;;;7.12;57.11
5138;BME280;53959;53.626;11.410;2023-04-07T12:09:07;101547.84;;;6.95;57.68
5138;BME280;53959;53.626;11.410;2023-04-07T12:11:34;101556.66;;;7.00;57.37
5138;BME280;53959;53.626;11.410;2023-04-07T12:14:00;101557.53;;;6.93;57.79
5138;BME280;53959;53.626;11.410;2023-04-07T12:16:29;101559.22;;;6.80;58.64
5138;BME280;53959;53.626;11.410;2023-04-07T12:18:54;101563.59;;;6.75;59.52
5138;BME280;53959;53.626;11.410;2023-04-07T12:21:20;101560.97;;;6.74;59.70
5138;BME280;53959;53.626;11.410;2023-04-07T12:23:46;101554.81;;;6.76;60.18
5138;BME280;53959;53.626;11.410;2023-04-07T12:26:12;101559.25;;;6.88;60.18
5138;BME280;53959;53.626;11.410;2023-04-07T12:28:37;101556.59;;;6.77;61.29
5138;BME280;53959;53.626;11.410;2023-04-07T12:31:03;101564.50;;;6.76;61.90
5138;BME280;53959;53.626;11.410;2023-04-07T12:33:30;101557.44;;;6.66;62.30
5138;BME280;53959;53.626;11.410;2023-04-07T12:35:56;101563.53;;;6.60;62.27
5138;BME280;53959;53.626;11.410;2023-04-07T12:38:22;101567.03;;;6.57;63.17
5138;BME280;53959;53.626;11.410;2023-04-07T12:40:47;101564.38;;;6.48;64.02
5138;BME280;53959;53.626;11.410;2023-04-07T12:43:12;101562.56;;;6.43;64.66
5138;BME280;53959;53.626;11.410;2023-04-07T12:45:38;101568.63;;;6.28;65.56
5138;BME280;53959;53.626;11.410;2023-04-07T12:48:03;101564.34;;;6.45;65.25
5138;BME280;53959;53.626;11.410;2023-04-07T12:50:29;101561.63;;;6.28;65.80
5138;BME280;53959;53.626;11.410;2023-04-07T12:52:55;101576.63;;;6.37;66.09
5138;BME280;53959;53.626;11.410;2023-04-07T12:55:23;101566.00;;;6.31;66.03
5138;BME280;53959;53.626;11.410;2023-04-07T12:57:48;101575.66;;;6.26;65.92
5138;BME280;53959;53.626;11.410;2023-04-07T13:00:14;101579.09;;;6.11;66.68
5138;BME280;53959;53.626;11.410;2023-04-07T13:02:41;101575.53;;;6.06;66.47
5138;BME280;53959;53.626;11.410;2023-04-07T13:05:06;101579.91;;;6.05;66.91
5138;BME280;53959;53.626;11.410;2023-04-07T13:07:32;101581.72;;;6.10;66.94
5138;BME280;53959;53.626;11.410;2023-04-07T13:09:59;101581.75;;;6.16;66.81
5138;BME280;53959;53.626;11.410;2023-04-07T13:12:24;101582.72;;;6.25;66.99
5138;BME280;53959;53.626;11.410;2023-04-07T13:14:50;101585.31;;;6.22;66.63
5138;BME280;53959;53.626;11.410;2023-04-07T13:17:15;101586.16;;;6.18;66.91
5138;BME280;53959;53.626;11.410;2023-04-07T13:19:42;101584.41;;;6.17;67.23
5138;BME280;53959;53.626;11.410;2023-04-07T13:22:11;101583.50;;;6.15;67.29